Flight Track Log - Related Links

Times and Time Zones

All times are in EST time to prevent confusion due to time zone crossing. See the UPS1307 flight status page for this flight to view local times or setup timezone preferences in your user account.

Time Position Orientation Groundspeed Altitude Reporting Facility
EST Latitude Longitude Course Direction KTS MPH feet Rate Location/Type
Wed 10:38:30 PM 33.7642 -84.4786 76° East 222 255 11,300  Level Atlanta Center
Wed 10:39:30 PM 33.7917 -84.3414 76° East 370 426 12,400 1,700 Climbing Atlanta Center
Wed 10:40:30 PM 33.8233 -84.1964 75° East 424 488 14,700 2,950 Climbing Atlanta Center
Wed 10:41:30 PM 33.8528 -84.0514 76° East 447 514 18,300 2,800 Climbing Atlanta Center
Wed 10:42:30 PM 33.8839 -83.9111 75° East 434 499 20,300 2,050 Climbing Atlanta Center
Wed 10:43:30 PM 33.9150 -83.7633 76° East 434 499 22,400 1,700 Climbing Atlanta Center
Wed 10:44:30 PM 33.9794 -83.6331 59° Northeast 456 525 23,700 1,500 Climbing Atlanta Center
Wed 10:45:30 PM 34.0603 -83.5072 52° Northeast 467 537 25,400 1,666 Climbing Atlanta Center
Wed 10:50:05 PM 34.5208 -82.7711 52° Northeast 548 631 33,000 1,476 Climbing FlightAware ADS-B (KDZJ)
Wed 10:50:39 PM 34.5723 -82.6873 53° Northeast 553 636 33,000  Level FlightAware ADS-B (KDZJ)
Wed 10:51:11 PM 34.6219 -82.6063 53° Northeast 552 635 33,000  Level FlightAware ADS-B (KDZJ)
Wed 10:51:42 PM 34.6705 -82.5268 53° Northeast 553 636 33,000  Level FlightAware ADS-B (KDZJ)
Wed 10:52:25 PM 34.7364 -82.4191 53° Northeast 562 647 33,000  Level FlightAware ADS-B (KDZJ)
Wed 10:53:01 PM 34.7923 -82.3272 53° Northeast 563 648 33,000  Level FlightAware ADS-B (KDZJ)
Wed 10:53:32 PM 34.8400 -82.2485 54° Northeast 564 649 33,000  Level FlightAware ADS-B (KDZJ)
Wed 10:54:30 PM 34.8556 -82.2239 54° Northeast 559 643 33,000  Level Atlanta Center
Wed 10:55:30 PM 34.9617 -82.0569 52° Northeast 564 649 33,000  Level Atlanta Center
Wed 10:56:30 PM 35.0528 -81.8972 55° Northeast 564 649 33,000  Level Atlanta Center
Wed 10:57:30 PM 35.1375 -81.7325 58° Northeast 569 655 33,000  Level Atlanta Center
Wed 10:58:30 PM 35.2239 -81.5700 57° Northeast 569 655 33,000  Level Atlanta Center
Wed 10:59:30 PM 35.3083 -81.4097 57° Northeast 569 655 33,000  Level Atlanta Center
Wed 11:00:30 PM 35.3944 -81.2464 57° Northeast 569 655 33,000  Level Atlanta Center
Wed 11:01:30 PM 35.4703 -81.0961 58° Northeast 569 655 33,000  Level Atlanta Center
Wed 11:02:30 PM 35.5539 -80.9347 57° Northeast 563 648 33,000  Level Atlanta Center
Wed 11:03:30 PM 35.6372 -80.7756 57° Northeast 558 642 33,000  Level Atlanta Center
Wed 11:04:30 PM 35.7225 -80.6111 57° Northeast 558 642 33,000  Level Atlanta Center
Wed 11:06:08 PM 35.8592 -80.3436 58° Northeast 570 656 33,000  Level Washington Center
Wed 11:07:09 PM 35.9408 -80.1767 59° Northeast 570 656 33,000  Level Washington Center
Wed 11:08:08 PM 36.0219 -80.0194 57° Northeast 559 643 33,000  Level Washington Center
Wed 11:09:08 PM 36.1133 -79.8600 55° Northeast 554 638 33,000  Level Washington Center
Wed 11:10:08 PM 36.2175 -79.6831 54° Northeast 565 650 33,000  Level Washington Center
Wed 11:11:09 PM 36.3094 -79.5614 47° Northeast 553 636 33,000  Level Washington Center
Wed 11:12:11 PM 36.4200 -79.4328 43° Northeast 543 625 33,000  Level Washington Center
Wed 11:13:09 PM 36.5303 -79.3064 43° Northeast 533 613 33,000  Level Washington Center
Wed 11:19:17 PM 37.2300 -78.5069 43° Northeast 531 611 33,000  Level FlightAware ADS-B (KWWD)
Wed 11:19:56 PM 37.3007 -78.4245 43° Northeast 531 611 33,000  Level FlightAware ADS-B (KWWD)
Wed 11:20:38 PM 37.3782 -78.3341 43° Northeast 532 612 33,000  Level FlightAware ADS-B (KWWD)
Wed 11:21:18 PM 37.4523 -78.2474 43° Northeast 532 612 33,000  Level FlightAware ADS-B (KWWD)
Wed 11:21:27 PM 37.4680 -78.2290 43° Northeast 531 611 33,000  Level FlightAware ADS-B (KWWD)
Wed 11:22:53 PM 37.6240 -78.0459 43° Northeast 539 620 33,000 -435 Level FlightAware ADS-B (KCHO)
Wed 11:23:31 PM 37.6578 -78.0062 43° Northeast 534 615 32,100 -1,500 Descending FlightAware ADS-B (KCHO)
Wed 11:24:13 PM 37.7693 -77.8748 43° Northeast 540 621 31,000 -2,182 Descending FlightAware ADS-B (KCHO)
Wed 11:24:37 PM 37.8155 -77.8200 43° Northeast 536 617 29,700 -1,869 Descending FlightAware ADS-B (KWWD)
Wed 11:25:14 PM 37.8393 -77.7917 43° Northeast 543 625 29,100 -592 Descending FlightAware ADS-B (KCHO)
Wed 11:25:48 PM 37.8393 -77.7917 43° Northeast 544 626 29,000 -49 Descending FlightAware ADS-B (KCHO)
Wed 11:27:17 PM 38.1096 -77.4673 43° Northeast 549 632 29,000  Level FlightAware ADS-B (KWWD)
Wed 11:27:57 PM 38.1782 -77.3709 48° Northeast 563 648 29,000 -148 Level FlightAware ADS-B (KWWD)
Wed 11:28:38 PM 38.2421 -77.2582 54° Northeast 565 650 28,800 -732 Descending FlightAware ADS-B (KWWD)
Wed 11:29:19 PM 38.2999 -77.1439 57° Northeast 573 659 28,000 -1,275 Descending FlightAware ADS-B (KWWD)
Wed 11:29:58 PM 38.3560 -77.0316 57° Northeast 568 654 27,100 -1,154 Descending FlightAware ADS-B (KWWD)
Wed 11:30:37 PM 38.4107 -76.9220 57° Northeast 555 639 26,500 -963 Descending FlightAware ADS-B (KWWD)
Wed 11:31:19 PM 38.4684 -76.8067 57° Northeast 548 631 25,800 -878 Descending FlightAware ADS-B (KWWD)
Wed 11:31:59 PM 38.5237 -76.6959 57° Northeast 542 624 25,300 -900 Descending FlightAware ADS-B (KWWD)
Wed 11:32:39 PM 38.5759 -76.5905 58° Northeast 525 604 24,600 -975 Descending FlightAware ADS-B (KWWD)
Wed 11:33:19 PM 38.6275 -76.4862 58° Northeast 519 597 24,000 -1,443 Descending FlightAware ADS-B (KWWD)
Wed 11:33:58 PM 38.6784 -76.3835 58° Northeast 507 583 22,700 -2,550 Descending FlightAware ADS-B (KWWD)
Wed 11:34:39 PM 38.7283 -76.2823 58° Northeast 491 565 20,600 -3,185 Descending FlightAware ADS-B (KWWD)
Wed 11:35:19 PM 38.7768 -76.1838 58° Northeast 482 555 18,400 -3,266 Descending FlightAware ADS-B (KWWD)
Wed 11:35:58 PM 38.8228 -76.0900 58° Northeast 459 528 16,300 -4,091 Descending FlightAware ADS-B (KWWD)
Wed 11:36:03 PM 38.8189 -76.0979 238° Southwest 462 532 15,400 -1,902 Descending FlightAware ADS-B
Wed 11:36:39 PM 38.8751 -76.0049 52° Northeast 438 504 15,000 -1,040 Descending FlightAware ADS-B (KWWD)
Wed 11:37:18 PM 38.9381 -75.9404 39° Northeast 426 490 14,100 -1,425 Descending FlightAware ADS-B (KWWD)
Wed 11:37:59 PM 39.0040 -75.8863 33° Northeast 401 461 13,100 -1,481 Descending FlightAware ADS-B (KWWD)
Wed 11:38:39 PM 39.0679 -75.8337 33° Northeast 403 464 12,100 -1,481 Descending FlightAware ADS-B (KWWD)
Wed 11:39:20 PM 39.1308 -75.7821 32° Northeast 388 447 11,100 -1,521 Descending FlightAware ADS-B (KWWD)
Wed 11:39:50 PM 39.1765 -75.7442 33° Northeast 386 444 10,300 -1,467 Descending FlightAware ADS-B
Wed 11:40:05 PM 39.1981 -75.7264 33° Northeast 384 442 10,000 -490 Descending FlightAware ADS-B
Wed 11:40:39 PM 39.2502 -75.6835 33° Northeast 371 427 9,900 -109 Descending FlightAware ADS-B (KWWD)
Wed 11:41:00 PM 39.2807 -75.6588 32° Northeast 370 426 9,900  Level FlightAware ADS-B (KWWD)
Wed 11:41:19 PM 39.3096 -75.6355 32° Northeast 367 422 9,900  Level FlightAware ADS-B (KWWD)
Wed 11:41:40 PM 39.3406 -75.6108 32° Northeast 368 423 9,900  Level FlightAware ADS-B (KWWD)
Wed 11:41:56 PM 39.3634 -75.5927 32° Northeast 376 433 9,900  Level FlightAware ADS-B
Wed 11:41:59 PM 39.3681 -75.5888 32° Northeast 374 430 9,900  Level FlightAware ADS-B
Wed 11:42:19 PM 39.3991 -75.5639 32° Northeast 367 422 9,900  Level FlightAware ADS-B (KWWD)
Wed 11:42:35 PM 39.4214 -75.5460 32° Northeast 374 430 9,900  Level FlightAware ADS-B
Wed 11:42:59 PM 39.4559 -75.5181 32° Northeast 352 405 9,900  Level FlightAware ADS-B
Wed 11:43:16 PM 39.4767 -75.4954 40° Northeast 350 403 9,900  Level FlightAware ADS-B
Wed 11:43:19 PM 39.4813 -75.4883 50° Northeast 327 376 9,900  Level FlightAware ADS-B (KWWD)
Wed 11:43:37 PM 39.4959 -75.4630 53° Northeast 323 372 9,900 -154 Level FlightAware ADS-B
Wed 11:43:58 PM 39.5009 -75.4542 53° Northeast 296 341 9,800 -800 Descending FlightAware ADS-B
Wed 11:44:22 PM 39.5322 -75.3995 53° Northeast 293 337 9,300 -1,286 Descending FlightAware ADS-B
Wed 11:44:40 PM 39.5486 -75.3712 53° Northeast 291 335 8,900 -1,333 Descending FlightAware ADS-B (KWWD)
Wed 11:44:58 PM 39.5638 -75.3452 53° Northeast 289 333 8,500 -1,297 Descending FlightAware ADS-B (KWWD)
Wed 11:45:17 PM 39.5777 -75.3213 53° Northeast 287 330 8,100 -1,171 Descending FlightAware ADS-B
Wed 11:45:39 PM 39.5965 -75.2896 53° Northeast 278 320 7,700 -1,143 Descending FlightAware ADS-B (KWWD)
Wed 11:45:59 PM 39.6111 -75.2643 53° Northeast 281 323 7,300 -1,350 Descending FlightAware ADS-B
Wed 11:46:19 PM 39.6236 -75.2426 53° Northeast 280 322 6,800 -1,421 Descending FlightAware ADS-B
Wed 11:46:37 PM 39.6386 -75.2169 53° Northeast 278 320 6,400 -1,171 Descending FlightAware ADS-B
Wed 11:47:00 PM 39.6592 -75.1816 53° Northeast 271 312 6,000 -1,200 Descending FlightAware ADS-B (KWWD)
Wed 11:47:17 PM 39.6719 -75.1601 53° Northeast 268 308 5,600 -1,263 Descending FlightAware ADS-B
Wed 11:47:38 PM 39.6880 -75.1328 53° Northeast 267 307 5,200 -1,256 Descending FlightAware ADS-B
Wed 11:48:00 PM 39.7050 -75.1039 53° Northeast 263 303 4,700 -1,231 Descending FlightAware ADS-B (KWWD)
Wed 11:48:17 PM 39.7169 -75.0840 52° Northeast 257 296 4,400 -789 Descending FlightAware ADS-B
Wed 11:48:38 PM 39.7277 -75.0663 52° Northeast 249 287 4,200 -923 Descending FlightAware ADS-B
Wed 11:48:56 PM 39.7407 -75.0451 52° Northeast 244 281 3,800 -1,171 Descending FlightAware ADS-B
Wed 11:49:19 PM 39.7658 -75.0180 40° Northeast 233 268 3,400 -1,000 Descending FlightAware ADS-B
Wed 11:49:38 PM 39.7795 -75.0140 13° North 229 264 3,100 -750 Descending FlightAware ADS-B
Wed 11:49:59 PM 39.8066 -75.0072 11° North 223 257 2,900 -293 Descending FlightAware ADS-B
Wed 11:50:19 PM 39.8266 -75.0015 12° North 206 237 2,900  Level FlightAware ADS-B
Wed 11:50:39 PM 39.8421 -74.9998 North 182 209 2,900  Level FlightAware ADS-B
Wed 11:50:59 PM 39.8598 -75.0095 337° Northwest 176 203 2,900  Level FlightAware ADS-B
Wed 11:51:18 PM 39.8717 -75.0202 325° Northwest 166 191 2,900  Level FlightAware ADS-B
Wed 11:51:21 PM 39.8746 -75.0234 321° Northwest 162 186 2,900  Level FlightAware ADS-B (KWWD)
Wed 11:51:38 PM 39.8816 -75.0356 307° West 153 176 2,900  Level FlightAware ADS-B
Wed 11:51:58 PM 39.8864 -75.0520 291° West 145 167 2,900 -293 Level FlightAware ADS-B
Wed 11:52:19 PM 39.8876 -75.0710 275° West 149 171 2,700 -439 Descending FlightAware ADS-B
Wed 11:52:39 PM 39.8877 -75.0833 271° West 141 162 2,600 -667 Descending FlightAware ADS-B
Wed 11:52:55 PM 39.8880 -75.1010 271° West 141 162 2,300 -923 Descending FlightAware ADS-B
Wed 11:53:18 PM 39.8882 -75.1131 271° West 130 150 2,000 -714 Descending FlightAware ADS-B
Wed 11:53:37 PM 39.8881 -75.1325 270° West 129 148 1,800 -750 Descending FlightAware ADS-B
Wed 11:53:58 PM 39.8865 -75.1483 262° West 120 138 1,500 -714 Descending FlightAware ADS-B
Wed 11:54:19 PM 39.8834 -75.1640 256° West 115 132 1,300 -750 Descending FlightAware ADS-B
Wed 11:54:38 PM 39.8806 -75.1764 253° West 115 132 1,000 -750 Descending FlightAware ADS-B
Wed 11:54:59 PM 39.8781 -75.1880 255° West 117 135 800 -585 Descending FlightAware ADS-B
Wed 11:55:19 PM 39.8750 -75.2036 255° West 114 131 600 -750 Descending FlightAware ADS-B
Wed 11:55:39 PM 39.8727 -75.2159 257° West 112 129 300 -750 Descending FlightAware ADS-B
Wed 11:55:59 PM 39.8699 -75.2299 255° West 112 129 100 -600 Descending FlightAware ADS-B

Login

Don't have an account? Register now (free) for customized features, flight alerts, and more!